메인 페이지
METAR-TAF:

METAR-TAF

공항 :

코모도로 아르투로 메리노 베니테스 국제공항

산티아고, 칠레

위도: 33-23S, 경도: 070-47W, 고도: 475m

현재 날씨관측

예보는 49분 전, 02:00시(UTC)에 발표되었습니다.
남남동9kt
온도 16°C
습도 51%
기압 1016 hPa
시정 10km 이상
고도 10000ft 상공 구름 조금
고도 20000ft 상공 구름 보통

METAR: SCEL 130200Z 15009KT 9999 FEW100 SCT200 16/06 Q1016 NOSIG

시각: 23:49 (02:49 UTC)

예보

예보는 4 시간 49분 전, 22:00시(UTC)에 발표되었습니다.
예보 대상 시간: 13일 00시부터 13일 24시까지 (UTC)
12kt
시정 10km 이상
1500m 미만 상공 구름 및 적란운 없음
전환 중
13일 01시부터 13일 03시까지 (UTC)
4kt
일시적
13일 10시부터 13일 12시까지 (UTC)
시정: 7000m
고도 17000ft 상공 구름 보통
고도 20000ft 상공 구름 많음
전환 중
13일 16시부터 13일 18시까지 (UTC)
10kt
전환 중
13일 18시부터 13일 20시까지 (UTC)
고도 5000ft 상공 구름 조금
고도 20000ft 상공 구름 많음

TAF: SCEL 122200Z 1300/1324 19012KT CAVOK TX24/1319Z TN12/1311Z BECMG 1301/1303 18004KT TEMPO 1310/1312 7000 SCT170 BKN200 BECMG 1316/1318 19010KT BECMG 1318/1320 FEW050 BKN200

4,000개 이상의 공항 관측 자료 및 예보 (METAR 및 TAF 보고).

지도상에서 검색 가능한 기상관측소가 노란 점과 빨간 점으로 표시되어 있습니다.

기상관측소 명을 보려면 표시 위로 마우스를 이동하세요.

날씨 관측과 예보를 보려면 클릭하세요.

지도 변경 : 확대하려면 엑스 표시가 있는 녹색 버튼, 축소하려면 빼기 표시가 있는 녹색 버튼, 다음 페이지의 지도를 보려면 녹색 화살표를 클릭하세요.


METAR-TAF: